Date,TemperatureHighF,TemperatureAvgF,TemperatureLowF,DewpointHighF,DewpointAvgF,DewpointLowF,HumidityHigh,HumidityAvg,HumidityLow,PressureMaxIn,PressureMinIn,WindSpeedMaxMPH,WindSpeedAvgMPH,GustSpeedMaxMPH,PrecipitationSumIn
2013-9-1,89.8,81.2,70.9,73.1,66.8,56.1,80,63,35,30.00,29.72,15,3,15,0.00
2013-9-2,87.4,74.6,62.2,63.7,60.4,58.3,88,64,40,30.10,29.99,8,1,10,0.00
2013-9-3,93.0,77.4,60.0,64.0,60.2,56.8,90,59,33,30.11,29.99,9,1,9,0.00
2013-9-4,92.0,79.2,66.5,63.9,60.5,57.1,77,55,33,30.15,30.04,11,2,11,0.00
2013-9-5,96.0,81.8,68.5,68.3,64.2,60.3,78,57,35,30.16,30.03,12,2,12,0.00
2013-9-6,100.8,85.9,73.1,68.5,65.7,61.6,74,53,30,30.08,29.89,13,3,13,0.00
2013-9-7,105.1,89.0,75.3,69.9,66.2,62.8,75,50,26,29.93,29.82,10,3,12,0.00
2013-9-8,104.4,89.5,77.2,69.8,64.5,61.2,65,46,25,29.87,29.76,13,2,13,0.00
2013-9-9,97.1,86.3,75.3,66.1,61.1,55.7,63,45,27,29.87,29.79,23,4,23,0.00
2013-9-10,97.2,85.8,75.6,66.3,62.4,58.2,64,47,34,30.02,29.87,21,5,21,0.00
2013-9-11,96.9,81.8,71.5,72.0,65.3,59.7,96,60,36,30.13,29.98,13,2,16,0.48
2013-9-12,78.9,72.3,69.9,71.8,69.9,62.6,99,92,77,30.19,30.09,10,0,10,0.59
2013-9-13,74.2,69.3,63.3,62.6,55.6,51.4,78,63,46,30.21,30.06,10,2,10,0.00
2013-9-14,83.8,72.1,59.1,64.6,58.2,52.7,82,63,45,30.08,29.88,14,2,14,0.00
2013-9-15,84.1,73.5,63.9,70.1,64.4,58.8,85,74,58,30.19,29.89,15,4,15,0.00
2013-9-16,63.8,61.4,59.8,61.6,59.6,57.0,98,94,85,30.25,30.16,16,3,16,0.04
2013-9-17,84.5,71.8,62.3,71.5,66.9,61.7,99,86,62,30.19,29.87,13,3,17,0.13
2013-9-18,94.9,82.1,72.1,70.9,67.2,62.4,87,64,38,29.90,29.70,23,6,23,0.00
2013-9-19,89.1,77.9,67.2,70.7,64.1,55.3,74,63,49,30.03,29.75,16,4,16,0.01
2013-9-20,77.2,65.1,55.0,55.5,51.5,46.8,90,64,37,30.15,30.01,12,2,12,0.00
2013-9-21,87.5,69.4,52.5,55.9,51.6,45.9,93,59,25,30.06,29.86,11,1,11,0.00
2013-9-22,83.4,71.1,61.0,55.3,51.9,48.0,76,54,32,29.92,29.77,15,4,15,0.00
2013-9-23,81.7,70.7,59.0,54.7,51.9,48.4,74,53,36,29.81,29.64,24,6,24,0.00
2013-9-24,75.8,67.3,59.7,59.0,56.0,53.3,86,68,52,29.93,29.75,22,4,24,0.00
2013-9-25,86.0,68.7,53.8,60.3,56.1,52.1,95,68,35,29.95,29.72,14,2,14,0.00
2013-9-26,94.3,78.5,66.0,63.1,59.2,56.3,77,55,29,29.75,29.66,27,7,27,0.00
2013-9-27,89.7,80.9,72.4,65.6,60.9,57.5,60,51,40,29.82,29.70,16,6,23,0.00
2013-9-28,78.0,63.6,51.8,68.9,51.5,43.9,93,67,38,30.14,29.67,13,5,21,0.25
2013-9-29,79.7,62.2,45.7,49.9,44.7,38.0,94,60,24,30.15,29.94,11,1,11,0.00
2013-9-30,84.8,67.8,52.1,54.3,51.1,47.0,89,59,31,29.95,29.78,10,2,13,0.00